Terminal Aerodrome Forecast
Issued by NWS

Home | Current Version | Previous Version | Text Only | Print | Product List | Glossary On
Versions: 1 2 3 4 5 6 7 8 9 10 11 12 13 14 15 16 17 18 19 20 21 22 23 24 25 26
000
FTAK31 PAFA 300524
TAFAFA
TAF
PAFA 300524Z 3006/3112 03008KT P6SM SCT060 SCT200
     FM301200 VRB04KT P6SM SCT200
     FM302200 20006KT P6SM FEW070 SCT200=

USA.gov is the U.S. government's official web portal to all federal, state and local government web resources and services.